createdAt,value
2024-05-09T00:03:03.000Z,18.01
2024-05-09T00:08:03.000Z,18.1
2024-05-09T00:13:03.000Z,18.22
2024-05-09T00:18:05.000Z,18.39
2024-05-09T00:23:03.000Z,18.78
2024-05-09T00:28:05.000Z,19.17
2024-05-09T00:33:06.000Z,19.29
2024-05-09T00:38:02.000Z,19.4
2024-05-09T00:43:03.000Z,19.53
2024-05-09T00:48:05.000Z,19.64
2024-05-09T00:53:04.000Z,19.71
2024-05-09T00:58:05.000Z,20.09
2024-05-09T01:03:03.000Z,20.47
2024-05-09T01:08:05.000Z,20.88
2024-05-09T01:13:05.000Z,21.87
2024-05-09T01:18:05.000Z,23.14
2024-05-09T01:23:05.000Z,24.73
2024-05-09T01:28:04.000Z,25.74
2024-05-09T01:33:05.000Z,26.8
2024-05-09T01:38:05.000Z,27.63
2024-05-09T01:43:05.000Z,28.32
2024-05-09T01:48:03.000Z,28.99
2024-05-09T01:53:06.000Z,29.48
2024-05-09T01:58:05.000Z,30.07
2024-05-09T02:03:06.000Z,30.07
2024-05-09T02:08:03.000Z,30.64
2024-05-09T02:13:04.000Z,31.45
2024-05-09T02:18:04.000Z,32.02
2024-05-09T02:23:04.000Z,31.62
2024-05-09T02:28:05.000Z,30.58
2024-05-09T02:33:07.000Z,29.7
2024-05-09T02:38:03.000Z,29.01
2024-05-09T02:43:04.000Z,28.27
2024-05-09T02:48:06.000Z,28.15
2024-05-09T02:53:05.000Z,27.94
2024-05-09T02:58:06.000Z,27.85
2024-05-09T03:03:05.000Z,27.91
2024-05-09T03:08:06.000Z,27.98
2024-05-09T03:13:03.000Z,28.01
2024-05-09T03:18:03.000Z,27.82
2024-05-09T03:23:06.000Z,28
2024-05-09T03:28:03.000Z,28.04
2024-05-09T03:33:05.000Z,28.11
2024-05-09T03:38:06.000Z,28.09
2024-05-09T03:43:03.000Z,28.16
2024-05-09T03:48:06.000Z,27.97
2024-05-09T03:53:05.000Z,27.97
2024-05-09T03:58:06.000Z,27.86
2024-05-09T04:03:04.000Z,28.22
2024-05-09T04:08:04.000Z,28.48
2024-05-09T04:13:06.000Z,28.58
2024-05-09T04:18:05.000Z,28.58
2024-05-09T04:23:06.000Z,28.89
2024-05-09T04:28:05.000Z,29.22
2024-05-09T04:33:04.000Z,29.28
2024-05-09T04:38:04.000Z,29.47
2024-05-09T04:43:05.000Z,29.69
2024-05-09T04:48:04.000Z,29.91
2024-05-09T04:53:04.000Z,29.93
2024-05-09T04:58:04.000Z,30.21
2024-05-09T05:03:03.000Z,30.37
2024-05-09T05:08:03.000Z,30.32
2024-05-09T05:13:03.000Z,30.54
2024-05-09T05:18:06.000Z,30.6
2024-05-09T05:23:05.000Z,30.8
2024-05-09T05:28:04.000Z,30.84
2024-05-09T05:33:04.000Z,30.57
2024-05-09T05:38:05.000Z,30.58
2024-05-09T05:43:04.000Z,30.79
2024-05-09T05:48:03.000Z,30.78
2024-05-09T05:53:05.000Z,30.98
2024-05-09T05:58:04.000Z,30.7
2024-05-09T06:03:06.000Z,31.02
2024-05-09T06:08:05.000Z,31.17
2024-05-09T06:13:06.000Z,31.25
2024-05-09T06:18:05.000Z,31.55
2024-05-09T06:23:05.000Z,31.83
2024-05-09T06:28:05.000Z,32.06
2024-05-09T06:33:05.000Z,31.88
2024-05-09T06:38:04.000Z,31.68
2024-05-09T06:43:05.000Z,31.71
2024-05-09T06:48:04.000Z,31.71
2024-05-09T06:53:06.000Z,31.94
2024-05-09T06:58:06.000Z,31.97
2024-05-09T07:03:04.000Z,31.77
2024-05-09T07:08:03.000Z,32.06
2024-05-09T07:13:05.000Z,32.27
2024-05-09T07:18:07.000Z,32.33
2024-05-09T07:23:04.000Z,32.24
2024-05-09T07:28:05.000Z,32.24
2024-05-09T07:33:03.000Z,32.37
2024-05-09T07:38:05.000Z,32.44
2024-05-09T07:43:04.000Z,32.53
2024-05-09T07:53:05.000Z,32.53
2024-05-09T07:53:05.000Z,32.53
2024-05-09T07:53:05.000Z,32.53
2024-05-09T08:03:06.000Z,32.89
2024-05-09T08:08:03.000Z,33.08
2024-05-09T08:13:06.000Z,33.06
2024-05-09T08:18:03.000Z,33.02
2024-05-09T08:23:05.000Z,33.17
2024-05-09T08:28:04.000Z,33.28
2024-05-09T08:33:05.000Z,33.44
2024-05-09T08:38:06.000Z,33.51
2024-05-09T08:43:03.000Z,33.58
2024-05-09T08:48:04.000Z,33.49
2024-05-09T08:53:05.000Z,33.31
2024-05-09T08:58:03.000Z,33.4
2024-05-09T09:03:04.000Z,33.56
2024-05-09T09:08:07.000Z,33.65
2024-05-09T09:13:03.000Z,33.57
2024-05-09T09:18:05.000Z,33.67
2024-05-09T09:23:04.000Z,33.71
2024-05-09T09:28:03.000Z,33.82
2024-05-09T09:33:05.000Z,33.85
2024-05-09T09:38:03.000Z,33.76
2024-05-09T09:43:05.000Z,33.9
2024-05-09T09:48:05.000Z,34
2024-05-09T09:53:04.000Z,33.97
2024-05-09T09:58:04.000Z,33.97
2024-05-09T10:03:04.000Z,33.87
2024-05-09T10:08:05.000Z,33.9
2024-05-09T10:13:06.000Z,33.87
2024-05-09T10:18:06.000Z,34.03
2024-05-09T10:23:04.000Z,33.97
2024-05-09T10:28:03.000Z,33.98
2024-05-09T10:33:03.000Z,33.99
2024-05-09T10:38:05.000Z,33.95
2024-05-09T10:43:06.000Z,33.87
2024-05-09T10:48:04.000Z,33.81
2024-05-09T10:53:06.000Z,33.83
2024-05-09T10:58:06.000Z,33.89
2024-05-09T11:03:05.000Z,33.95
2024-05-09T11:08:03.000Z,34.01
2024-05-09T11:13:03.000Z,34
2024-05-09T11:18:07.000Z,33.96
2024-05-09T11:23:04.000Z,33.86
2024-05-09T11:28:04.000Z,33.85
2024-05-09T11:33:03.000Z,33.85
2024-05-09T11:38:04.000Z,33.81
2024-05-09T11:43:04.000Z,33.8
2024-05-09T11:48:03.000Z,33.73
2024-05-09T11:53:04.000Z,33.68
2024-05-09T11:58:06.000Z,33.58
2024-05-09T12:03:06.000Z,33.41
2024-05-09T12:08:04.000Z,33.21
2024-05-09T12:13:06.000Z,33.15
2024-05-09T12:18:04.000Z,33.13
2024-05-09T12:23:04.000Z,33.12
2024-05-09T12:28:03.000Z,33.09
2024-05-09T12:33:05.000Z,33.03
2024-05-09T12:38:04.000Z,32.97
2024-05-09T12:43:05.000Z,32.83
2024-05-09T12:48:03.000Z,32.74
2024-05-09T12:53:05.000Z,32.57
2024-05-09T12:58:04.000Z,32.39
2024-05-09T13:03:05.000Z,32.08
2024-05-09T13:08:04.000Z,31.82
2024-05-09T13:13:03.000Z,31.62
2024-05-09T13:18:04.000Z,31.41
2024-05-09T13:23:06.000Z,31.16
2024-05-09T13:28:06.000Z,30.92
2024-05-09T13:33:03.000Z,30.7
2024-05-09T13:38:04.000Z,30.39
2024-05-09T13:43:06.000Z,30.11
2024-05-09T13:48:03.000Z,29.75
2024-05-09T13:53:05.000Z,29.42
2024-05-09T13:58:06.000Z,29.13
2024-05-09T14:03:06.000Z,28.77
2024-05-09T14:08:04.000Z,28.51
2024-05-09T14:13:06.000Z,28.26
2024-05-09T14:18:05.000Z,27.94
2024-05-09T14:23:05.000Z,27.66
2024-05-09T14:28:05.000Z,27.43
2024-05-09T14:33:05.000Z,27.27
2024-05-09T14:38:06.000Z,26.86
2024-05-09T14:43:06.000Z,26.5
2024-05-09T14:48:04.000Z,26.39
2024-05-09T14:53:06.000Z,26.43
2024-05-09T14:58:03.000Z,26.39
2024-05-09T15:03:04.000Z,26.26
2024-05-09T15:08:04.000Z,26.21
2024-05-09T15:13:04.000Z,26.09
2024-05-09T15:18:06.000Z,26
2024-05-09T15:23:05.000Z,25.99
2024-05-09T15:28:04.000Z,25.98
2024-05-09T15:33:06.000Z,25.98
2024-05-09T15:38:04.000Z,26.02
2024-05-09T15:43:05.000Z,25.98
2024-05-09T15:48:06.000Z,26.02
2024-05-09T15:53:06.000Z,25.86
2024-05-09T15:58:04.000Z,25.64
2024-05-09T16:03:04.000Z,25.64
2024-05-09T16:08:07.000Z,25.37
2024-05-09T16:13:06.000Z,25.2
2024-05-09T16:18:03.000Z,25.08
2024-05-09T16:23:03.000Z,24.99
2024-05-09T16:28:03.000Z,24.89
2024-05-09T16:33:05.000Z,24.78
2024-05-09T16:38:06.000Z,24.65
2024-05-09T16:43:05.000Z,24.55
2024-05-09T16:48:06.000Z,24.48
2024-05-09T16:53:05.000Z,24.4
2024-05-09T16:58:04.000Z,24.26
2024-05-09T17:03:05.000Z,24.23
2024-05-09T17:08:03.000Z,24.2
2024-05-09T17:13:05.000Z,24.13
2024-05-09T17:18:06.000Z,24.01
2024-05-09T17:23:04.000Z,23.95
2024-05-09T17:28:06.000Z,24.03
2024-05-09T17:33:03.000Z,24.03
2024-05-09T17:38:05.000Z,23.94
2024-05-09T17:43:07.000Z,23.8
2024-05-09T17:48:04.000Z,23.7
2024-05-09T17:53:06.000Z,23.64
2024-05-09T17:58:03.000Z,23.62
2024-05-09T18:03:06.000Z,23.62
2024-05-09T18:08:06.000Z,23.57
2024-05-09T18:13:03.000Z,23.46
2024-05-09T18:18:06.000Z,23.42
2024-05-09T18:23:06.000Z,23.39
2024-05-09T18:28:05.000Z,23.39
2024-05-09T18:33:04.000Z,23.34
2024-05-09T18:38:06.000Z,23.33
2024-05-09T18:43:06.000Z,23.19
2024-05-09T18:48:04.000Z,23.11
2024-05-09T18:53:06.000Z,23.05
2024-05-09T18:58:03.000Z,23.02
2024-05-09T19:03:03.000Z,23.11
2024-05-09T19:08:06.000Z,23.13
2024-05-09T19:13:06.000Z,23.14
2024-05-09T19:18:04.000Z,23.08
2024-05-09T19:23:03.000Z,23.02
2024-05-09T19:28:06.000Z,22.87
2024-05-09T19:33:05.000Z,22.58
2024-05-09T19:38:03.000Z,22.33
2024-05-09T19:43:06.000Z,22.2
2024-05-09T19:48:03.000Z,22.09
2024-05-09T19:53:03.000Z,22.09
2024-05-09T19:58:04.000Z,21.93
2024-05-09T20:03:05.000Z,21.78
2024-05-09T20:08:07.000Z,21.64
2024-05-09T20:13:04.000Z,21.56
2024-05-09T20:18:03.000Z,21.47
2024-05-09T20:23:07.000Z,21.4
2024-05-09T20:28:03.000Z,21.35
2024-05-09T20:33:05.000Z,21.35
2024-05-09T20:38:07.000Z,21.35
2024-05-09T20:43:04.000Z,21.37
2024-05-09T20:48:06.000Z,21.55
2024-05-09T20:53:05.000Z,21.68
2024-05-09T20:58:08.000Z,21.75
2024-05-09T21:03:05.000Z,21.86
2024-05-09T21:08:06.000Z,21.93
2024-05-09T21:13:04.000Z,21.93
2024-05-09T21:18:04.000Z,21.92
2024-05-09T21:23:04.000Z,21.85
2024-05-09T21:28:04.000Z,21.74
2024-05-09T21:33:05.000Z,21.64
2024-05-09T21:38:03.000Z,21.79
2024-05-09T21:43:07.000Z,22
2024-05-09T21:48:06.000Z,22.07
2024-05-09T21:53:03.000Z,22.09
2024-05-09T21:58:05.000Z,21.91
2024-05-09T22:03:05.000Z,21.76
2024-05-09T22:08:05.000Z,21.64
2024-05-09T22:13:04.000Z,21.53
2024-05-09T22:18:06.000Z,21.56
2024-05-09T22:23:07.000Z,21.6
2024-05-09T22:28:04.000Z,21.66
2024-05-09T22:33:04.000Z,21.71
2024-05-09T22:38:04.000Z,21.83
2024-05-09T22:43:05.000Z,22.13
2024-05-09T22:48:05.000Z,22.47
2024-05-09T22:53:05.000Z,22.7
2024-05-09T22:58:05.000Z,22.85
2024-05-09T23:03:07.000Z,22.85
2024-05-09T23:08:05.000Z,23.02
2024-05-09T23:13:06.000Z,23.07
2024-05-09T23:18:04.000Z,23.08
2024-05-09T23:23:07.000Z,23.04
2024-05-09T23:28:06.000Z,23.01
2024-05-09T23:33:05.000Z,22.93
2024-05-09T23:38:05.000Z,22.92
2024-05-09T23:43:05.000Z,22.8
2024-05-09T23:48:06.000Z,22.55
2024-05-09T23:53:03.000Z,22.4
2024-05-09T23:58:03.000Z,22.43
